sensor_id;sensor_type;location;lat;lon;timestamp;temperature;humidity
8541;DHT22;4308;51.294;6.590;2024-03-22T00:01:53;11.60;99.90
8541;DHT22;4308;51.294;6.590;2024-03-22T00:04:20;11.60;99.90
8541;DHT22;4308;51.294;6.590;2024-03-22T00:06:48;11.60;99.90
8541;DHT22;4308;51.294;6.590;2024-03-22T00:09:15;11.60;99.90
8541;DHT22;4308;51.294;6.590;2024-03-22T00:11:42;11.60;99.90
8541;DHT22;4308;51.294;6.590;2024-03-22T00:14:09;11.60;99.90
8541;DHT22;4308;51.294;6.590;2024-03-22T00:16:36;11.60;99.90
8541;DHT22;4308;51.294;6.590;2024-03-22T00:19:03;11.60;99.90
8541;DHT22;4308;51.294;6.590;2024-03-22T00:21:30;11.70;99.90
8541;DHT22;4308;51.294;6.590;2024-03-22T00:23:57;11.60;99.90
8541;DHT22;4308;51.294;6.590;2024-03-22T00:26:24;11.70;99.90
8541;DHT22;4308;51.294;6.590;2024-03-22T00:28:50;11.70;99.90
8541;DHT22;4308;51.294;6.590;2024-03-22T00:31:17;11.70;99.90
8541;DHT22;4308;51.294;6.590;2024-03-22T00:33:43;11.70;99.90
8541;DHT22;4308;51.294;6.590;2024-03-22T00:36:10;11.70;99.90
8541;DHT22;4308;51.294;6.590;2024-03-22T00:38:36;11.60;99.90
8541;DHT22;4308;51.294;6.590;2024-03-22T00:41:03;11.70;99.90
8541;DHT22;4308;51.294;6.590;2024-03-22T00:43:29;11.60;99.90
8541;DHT22;4308;51.294;6.590;2024-03-22T00:45:55;11.60;99.90
8541;DHT22;4308;51.294;6.590;2024-03-22T00:48:22;11.60;99.90
8541;DHT22;4308;51.294;6.590;2024-03-22T00:50:48;11.50;99.90
8541;DHT22;4308;51.294;6.590;2024-03-22T00:53:14;11.50;99.90
8541;DHT22;4308;51.294;6.590;2024-03-22T00:55:41;11.50;99.90
8541;DHT22;4308;51.294;6.590;2024-03-22T00:58:07;11.60;99.90
8541;DHT22;4308;51.294;6.590;2024-03-22T01:00:33;11.60;99.90
8541;DHT22;4308;51.294;6.590;2024-03-22T01:03:00;11.60;99.90
8541;DHT22;4308;51.294;6.590;2024-03-22T01:05:26;11.60;99.90
8541;DHT22;4308;51.294;6.590;2024-03-22T01:07:52;11.60;99.90
8541;DHT22;4308;51.294;6.590;2024-03-22T01:10:19;11.50;99.90
8541;DHT22;4308;51.294;6.590;2024-03-22T01:12:45;11.50;99.90
8541;DHT22;4308;51.294;6.590;2024-03-22T01:15:11;11.50;99.90
8541;DHT22;4308;51.294;6.590;2024-03-22T01:17:38;11.50;99.90
8541;DHT22;4308;51.294;6.590;2024-03-22T01:20:04;11.50;99.90
8541;DHT22;4308;51.294;6.590;2024-03-22T01:22:30;11.50;99.90
8541;DHT22;4308;51.294;6.590;2024-03-22T01:24:57;11.50;99.90
8541;DHT22;4308;51.294;6.590;2024-03-22T01:27:23;11.50;99.90
8541;DHT22;4308;51.294;6.590;2024-03-22T01:29:50;11.40;99.90
8541;DHT22;4308;51.294;6.590;2024-03-22T01:32:16;11.50;99.90
8541;DHT22;4308;51.294;6.590;2024-03-22T01:34:42;11.40;99.90
8541;DHT22;4308;51.294;6.590;2024-03-22T01:37:09;11.40;99.90
8541;DHT22;4308;51.294;6.590;2024-03-22T01:39:35;11.40;99.90
8541;DHT22;4308;51.294;6.590;2024-03-22T01:42:01;11.40;99.90
8541;DHT22;4308;51.294;6.590;2024-03-22T01:44:28;11.40;99.90
8541;DHT22;4308;51.294;6.590;2024-03-22T01:46:55;11.30;99.90
8541;DHT22;4308;51.294;6.590;2024-03-22T01:49:23;11.40;99.90
8541;DHT22;4308;51.294;6.590;2024-03-22T01:51:51;11.30;99.90
8541;DHT22;4308;51.294;6.590;2024-03-22T01:54:17;11.40;99.90
8541;DHT22;4308;51.294;6.590;2024-03-22T01:56:43;11.40;99.90
8541;DHT22;4308;51.294;6.590;2024-03-22T01:59:10;11.40;99.90
8541;DHT22;4308;51.294;6.590;2024-03-22T02:01:36;11.40;99.90
8541;DHT22;4308;51.294;6.590;2024-03-22T02:04:03;11.40;99.90
8541;DHT22;4308;51.294;6.590;2024-03-22T02:06:29;11.40;99.90
8541;DHT22;4308;51.294;6.590;2024-03-22T02:08:57;11.40;99.90
8541;DHT22;4308;51.294;6.590;2024-03-22T02:11:25;11.40;99.90
8541;DHT22;4308;51.294;6.590;2024-03-22T02:13:52;11.40;99.90
8541;DHT22;4308;51.294;6.590;2024-03-22T02:16:18;11.50;99.90
8541;DHT22;4308;51.294;6.590;2024-03-22T02:18:45;11.50;99.90
8541;DHT22;4308;51.294;6.590;2024-03-22T02:21:11;11.50;99.90
8541;DHT22;4308;51.294;6.590;2024-03-22T02:23:39;11.50;99.90
8541;DHT22;4308;51.294;6.590;2024-03-22T02:26:07;11.60;99.90
8541;DHT22;4308;51.294;6.590;2024-03-22T02:28:34;11.60;99.90
8541;DHT22;4308;51.294;6.590;2024-03-22T02:31:01;11.60;99.90
8541;DHT22;4308;51.294;6.590;2024-03-22T02:33:28;11.60;99.90
8541;DHT22;4308;51.294;6.590;2024-03-22T02:35:54;11.60;99.90
8541;DHT22;4308;51.294;6.590;2024-03-22T02:38:21;11.60;99.90
8541;DHT22;4308;51.294;6.590;2024-03-22T02:40:49;11.60;99.90
8541;DHT22;4308;51.294;6.590;2024-03-22T02:43:15;11.60;99.90
8541;DHT22;4308;51.294;6.590;2024-03-22T02:45:42;11.60;99.90
8541;DHT22;4308;51.294;6.590;2024-03-22T02:48:08;11.60;99.90
8541;DHT22;4308;51.294;6.590;2024-03-22T02:50:38;11.50;99.90
8541;DHT22;4308;51.294;6.590;2024-03-22T02:53:04;11.50;99.90
8541;DHT22;4308;51.294;6.590;2024-03-22T02:55:39;11.50;99.90
8541;DHT22;4308;51.294;6.590;2024-03-22T02:58:07;11.50;99.90
8541;DHT22;4308;51.294;6.590;2024-03-22T03:00:37;11.40;99.90
8541;DHT22;4308;51.294;6.590;2024-03-22T03:03:05;11.40;99.90
8541;DHT22;4308;51.294;6.590;2024-03-22T03:05:31;11.40;99.90
8541;DHT22;4308;51.294;6.590;2024-03-22T03:07:58;11.40;99.90
8541;DHT22;4308;51.294;6.590;2024-03-22T03:10:24;11.40;99.90
8541;DHT22;4308;51.294;6.590;2024-03-22T03:12:51;11.40;99.90
8541;DHT22;4308;51.294;6.590;2024-03-22T03:15:17;11.40;99.90
8541;DHT22;4308;51.294;6.590;2024-03-22T03:17:44;11.30;99.90
8541;DHT22;4308;51.294;6.590;2024-03-22T03:20:10;11.30;99.90
8541;DHT22;4308;51.294;6.590;2024-03-22T03:22:37;11.20;99.90
8541;DHT22;4308;51.294;6.590;2024-03-22T03:25:04;11.10;99.90
8541;DHT22;4308;51.294;6.590;2024-03-22T03:27:31;11.00;99.90
8541;DHT22;4308;51.294;6.590;2024-03-22T03:29:57;11.00;99.90
8541;DHT22;4308;51.294;6.590;2024-03-22T03:32:23;10.90;99.90
8541;DHT22;4308;51.294;6.590;2024-03-22T03:34:50;10.80;99.90
8541;DHT22;4308;51.294;6.590;2024-03-22T03:37:16;10.30;99.90
8541;DHT22;4308;51.294;6.590;2024-03-22T03:39:42;10.70;99.90
8541;DHT22;4308;51.294;6.590;2024-03-22T03:42:10;10.60;99.90
8541;DHT22;4308;51.294;6.590;2024-03-22T03:44:36;10.60;99.90
8541;DHT22;4308;51.294;6.590;2024-03-22T03:47:03;10.50;99.90
8541;DHT22;4308;51.294;6.590;2024-03-22T03:49:29;10.50;99.90
8541;DHT22;4308;51.294;6.590;2024-03-22T03:51:55;10.50;99.90
8541;DHT22;4308;51.294;6.590;2024-03-22T03:54:22;10.50;99.90
8541;DHT22;4308;51.294;6.590;2024-03-22T03:56:48;10.50;99.90
8541;DHT22;4308;51.294;6.590;2024-03-22T03:59:14;10.40;99.90
8541;DHT22;4308;51.294;6.590;2024-03-22T04:01:41;10.40;99.90
8541;DHT22;4308;51.294;6.590;2024-03-22T04:04:07;10.30;99.90
8541;DHT22;4308;51.294;6.590;2024-03-22T04:06:33;10.30;99.90
8541;DHT22;4308;51.294;6.590;2024-03-22T04:09:00;10.40;99.90
8541;DHT22;4308;51.294;6.590;2024-03-22T04:11:26;10.40;99.90
8541;DHT22;4308;51.294;6.590;2024-03-22T04:13:52;10.40;99.90
8541;DHT22;4308;51.294;6.590;2024-03-22T04:16:19;10.40;99.90
8541;DHT22;4308;51.294;6.590;2024-03-22T04:18:45;10.50;99.90
8541;DHT22;4308;51.294;6.590;2024-03-22T04:21:11;10.50;99.90
8541;DHT22;4308;51.294;6.590;2024-03-22T04:23:38;10.60;99.90
8541;DHT22;4308;51.294;6.590;2024-03-22T04:26:04;10.50;99.90
8541;DHT22;4308;51.294;6.590;2024-03-22T04:28:30;10.70;99.90
8541;DHT22;4308;51.294;6.590;2024-03-22T04:31:05;10.80;99.90
8541;DHT22;4308;51.294;6.590;2024-03-22T04:33:32;10.80;99.90
8541;DHT22;4308;51.294;6.590;2024-03-22T04:36:00;10.90;99.90
8541;DHT22;4308;51.294;6.590;2024-03-22T04:38:27;10.90;99.90
8541;DHT22;4308;51.294;6.590;2024-03-22T04:40:54;10.90;99.90
8541;DHT22;4308;51.294;6.590;2024-03-22T04:43:20;11.00;99.90
8541;DHT22;4308;51.294;6.590;2024-03-22T04:45:48;11.00;99.90
8541;DHT22;4308;51.294;6.590;2024-03-22T04:48:16;11.00;99.90
8541;DHT22;4308;51.294;6.590;2024-03-22T04:50:43;11.00;99.90
8541;DHT22;4308;51.294;6.590;2024-03-22T04:53:09;11.10;99.90
8541;DHT22;4308;51.294;6.590;2024-03-22T04:55:36;11.10;99.90
8541;DHT22;4308;51.294;6.590;2024-03-22T04:58:02;11.20;99.90
8541;DHT22;4308;51.294;6.590;2024-03-22T05:00:28;11.20;99.90
8541;DHT22;4308;51.294;6.590;2024-03-22T05:02:55;11.30;99.90
8541;DHT22;4308;51.294;6.590;2024-03-22T05:05:21;11.30;99.90
8541;DHT22;4308;51.294;6.590;2024-03-22T05:07:47;11.30;99.90
8541;DHT22;4308;51.294;6.590;2024-03-22T05:10:14;11.40;99.90
8541;DHT22;4308;51.294;6.590;2024-03-22T05:12:40;11.40;99.90
8541;DHT22;4308;51.294;6.590;2024-03-22T05:15:07;11.50;99.90
8541;DHT22;4308;51.294;6.590;2024-03-22T05:17:33;11.40;99.90
8541;DHT22;4308;51.294;6.590;2024-03-22T05:20:00;11.50;99.90
8541;DHT22;4308;51.294;6.590;2024-03-22T05:22:27;11.50;99.90
8541;DHT22;4308;51.294;6.590;2024-03-22T05:24:53;11.60;99.90
8541;DHT22;4308;51.294;6.590;2024-03-22T05:27:20;11.60;99.90
8541;DHT22;4308;51.294;6.590;2024-03-22T05:29:46;11.60;99.90
8541;DHT22;4308;51.294;6.590;2024-03-22T05:32:12;11.60;99.90
8541;DHT22;4308;51.294;6.590;2024-03-22T05:34:39;11.60;99.90
8541;DHT22;4308;51.294;6.590;2024-03-22T05:37:05;11.60;99.90
8541;DHT22;4308;51.294;6.590;2024-03-22T05:39:31;11.70;99.90
8541;DHT22;4308;51.294;6.590;2024-03-22T05:41:58;11.70;99.90
8541;DHT22;4308;51.294;6.590;2024-03-22T05:44:24;11.70;99.90
8541;DHT22;4308;51.294;6.590;2024-03-22T05:46:51;11.80;99.90
8541;DHT22;4308;51.294;6.590;2024-03-22T05:49:17;11.80;99.90
8541;DHT22;4308;51.294;6.590;2024-03-22T05:51:43;11.80;99.90
8541;DHT22;4308;51.294;6.590;2024-03-22T05:54:10;11.90;99.90
8541;DHT22;4308;51.294;6.590;2024-03-22T05:56:36;11.90;99.90
8541;DHT22;4308;51.294;6.590;2024-03-22T05:59:03;11.90;99.90
8541;DHT22;4308;51.294;6.590;2024-03-22T06:01:29;11.90;99.90
8541;DHT22;4308;51.294;6.590;2024-03-22T06:03:55;12.00;99.90
8541;DHT22;4308;51.294;6.590;2024-03-22T06:06:22;12.00;99.90
8541;DHT22;4308;51.294;6.590;2024-03-22T06:18:35;12.30;99.90
8541;DHT22;4308;51.294;6.590;2024-03-22T06:21:01;12.40;99.90
8541;DHT22;4308;51.294;6.590;2024-03-22T06:23:27;12.40;99.90
8541;DHT22;4308;51.294;6.590;2024-03-22T06:25:54;12.50;99.90
8541;DHT22;4308;51.294;6.590;2024-03-22T06:28:22;12.30;99.90
8541;DHT22;4308;51.294;6.590;2024-03-22T06:30:49;12.50;99.90
8541;DHT22;4308;51.294;6.590;2024-03-22T06:33:15;12.60;99.90
8541;DHT22;4308;51.294;6.590;2024-03-22T06:35:42;12.60;99.90
8541;DHT22;4308;51.294;6.590;2024-03-22T06:38:08;12.70;99.90
8541;DHT22;4308;51.294;6.590;2024-03-22T06:40:35;12.80;99.90
8541;DHT22;4308;51.294;6.590;2024-03-22T06:43:01;12.80;99.90
8541;DHT22;4308;51.294;6.590;2024-03-22T06:45:28;12.80;99.90
8541;DHT22;4308;51.294;6.590;2024-03-22T06:47:54;12.80;99.90
8541;DHT22;4308;51.294;6.590;2024-03-22T06:50:21;12.80;99.90
8541;DHT22;4308;51.294;6.590;2024-03-22T06:52:54;12.90;99.90
8541;DHT22;4308;51.294;6.590;2024-03-22T06:55:20;12.90;99.90
8541;DHT22;4308;51.294;6.590;2024-03-22T06:57:47;13.00;99.90
8541;DHT22;4308;51.294;6.590;2024-03-22T07:00:14;13.20;99.90
8541;DHT22;4308;51.294;6.590;2024-03-22T07:02:41;13.40;99.90
8541;DHT22;4308;51.294;6.590;2024-03-22T07:05:08;13.50;99.90
8541;DHT22;4308;51.294;6.590;2024-03-22T07:07:35;13.70;99.90
8541;DHT22;4308;51.294;6.590;2024-03-22T07:10:03;13.80;99.90
8541;DHT22;4308;51.294;6.590;2024-03-22T07:12:29;13.90;99.90
8541;DHT22;4308;51.294;6.590;2024-03-22T07:14:56;14.00;99.90
8541;DHT22;4308;51.294;6.590;2024-03-22T07:17:22;14.10;99.90
8541;DHT22;4308;51.294;6.590;2024-03-22T07:19:49;14.10;99.90
8541;DHT22;4308;51.294;6.590;2024-03-22T07:22:15;14.10;99.90
8541;DHT22;4308;51.294;6.590;2024-03-22T07:24:42;14.20;99.90
8541;DHT22;4308;51.294;6.590;2024-03-22T07:27:08;14.20;99.90
8541;DHT22;4308;51.294;6.590;2024-03-22T07:29:34;14.30;99.90
8541;DHT22;4308;51.294;6.590;2024-03-22T07:34:27;14.30;99.90
8541;DHT22;4308;51.294;6.590;2024-03-22T07:36:54;14.30;99.90
8541;DHT22;4308;51.294;6.590;2024-03-22T07:39:23;14.40;99.90
8541;DHT22;4308;51.294;6.590;2024-03-22T07:41:50;14.40;99.90
8541;DHT22;4308;51.294;6.590;2024-03-22T07:44:17;14.40;99.90
8541;DHT22;4308;51.294;6.590;2024-03-22T07:46:46;14.40;99.90
8541;DHT22;4308;51.294;6.590;2024-03-22T07:49:13;14.40;99.90
8541;DHT22;4308;51.294;6.590;2024-03-22T07:51:39;14.40;99.90
8541;DHT22;4308;51.294;6.590;2024-03-22T07:54:06;14.50;99.90
8541;DHT22;4308;51.294;6.590;2024-03-22T07:56:32;14.50;99.90
8541;DHT22;4308;51.294;6.590;2024-03-22T07:58:59;14.70;99.90
8541;DHT22;4308;51.294;6.590;2024-03-22T08:01:25;14.80;99.90
8541;DHT22;4308;51.294;6.590;2024-03-22T08:03:51;15.00;99.90
8541;DHT22;4308;51.294;6.590;2024-03-22T08:06:18;15.00;99.90
8541;DHT22;4308;51.294;6.590;2024-03-22T08:08:44;15.10;99.90
8541;DHT22;4308;51.294;6.590;2024-03-22T08:11:11;15.10;99.90
8541;DHT22;4308;51.294;6.590;2024-03-22T08:13:37;15.10;99.90
8541;DHT22;4308;51.294;6.590;2024-03-22T08:16:04;15.10;99.90
8541;DHT22;4308;51.294;6.590;2024-03-22T08:18:31;15.10;99.90
8541;DHT22;4308;51.294;6.590;2024-03-22T08:20:57;15.10;99.90
8541;DHT22;4308;51.294;6.590;2024-03-22T08:23:23;15.10;99.90
8541;DHT22;4308;51.294;6.590;2024-03-22T08:25:50;15.10;99.90
8541;DHT22;4308;51.294;6.590;2024-03-22T08:28:16;15.00;99.90
8541;DHT22;4308;51.294;6.590;2024-03-22T08:30:43;15.10;99.90
8541;DHT22;4308;51.294;6.590;2024-03-22T08:33:10;15.20;99.90
8541;DHT22;4308;51.294;6.590;2024-03-22T08:35:37;15.20;99.90
8541;DHT22;4308;51.294;6.590;2024-03-22T08:38:03;15.30;99.90
8541;DHT22;4308;51.294;6.590;2024-03-22T08:40:29;15.40;99.90
8541;DHT22;4308;51.294;6.590;2024-03-22T08:42:56;15.50;99.90
8541;DHT22;4308;51.294;6.590;2024-03-22T08:45:22;15.60;99.90
8541;DHT22;4308;51.294;6.590;2024-03-22T08:47:48;15.70;99.90
8541;DHT22;4308;51.294;6.590;2024-03-22T08:50:15;15.90;99.90
8541;DHT22;4308;51.294;6.590;2024-03-22T08:52:41;16.00;99.90
8541;DHT22;4308;51.294;6.590;2024-03-22T08:55:07;16.10;99.90
8541;DHT22;4308;51.294;6.590;2024-03-22T08:57:34;16.30;99.90
8541;DHT22;4308;51.294;6.590;2024-03-22T09:00:00;16.40;99.90
8541;DHT22;4308;51.294;6.590;2024-03-22T09:02:29;16.50;99.90
8541;DHT22;4308;51.294;6.590;2024-03-22T09:04:56;16.50;99.90
8541;DHT22;4308;51.294;6.590;2024-03-22T09:07:22;16.50;99.90
8541;DHT22;4308;51.294;6.590;2024-03-22T09:09:48;16.40;99.90
8541;DHT22;4308;51.294;6.590;2024-03-22T09:12:15;16.30;99.90
8541;DHT22;4308;51.294;6.590;2024-03-22T09:14:41;16.30;99.90
8541;DHT22;4308;51.294;6.590;2024-03-22T09:17:07;16.40;99.90
8541;DHT22;4308;51.294;6.590;2024-03-22T09:19:34;16.60;99.90
8541;DHT22;4308;51.294;6.590;2024-03-22T09:22:00;16.60;99.90
8541;DHT22;4308;51.294;6.590;2024-03-22T09:24:27;16.80;99.90
8541;DHT22;4308;51.294;6.590;2024-03-22T09:26:53;16.90;99.90
8541;DHT22;4308;51.294;6.590;2024-03-22T09:29:19;17.00;99.90
8541;DHT22;4308;51.294;6.590;2024-03-22T09:31:46;17.10;99.90
8541;DHT22;4308;51.294;6.590;2024-03-22T09:34:12;17.20;99.90
8541;DHT22;4308;51.294;6.590;2024-03-22T09:36:39;17.30;99.90
8541;DHT22;4308;51.294;6.590;2024-03-22T09:39:05;17.10;99.90
8541;DHT22;4308;51.294;6.590;2024-03-22T09:41:32;17.20;99.90
8541;DHT22;4308;51.294;6.590;2024-03-22T09:44:00;17.10;99.90
8541;DHT22;4308;51.294;6.590;2024-03-22T09:46:29;17.20;99.90
8541;DHT22;4308;51.294;6.590;2024-03-22T09:48:55;17.20;99.90
8541;DHT22;4308;51.294;6.590;2024-03-22T09:51:22;17.10;99.90
8541;DHT22;4308;51.294;6.590;2024-03-22T09:53:52;17.10;99.90
8541;DHT22;4308;51.294;6.590;2024-03-22T09:56:21;17.10;99.90
8541;DHT22;4308;51.294;6.590;2024-03-22T09:58:47;17.00;99.90
8541;DHT22;4308;51.294;6.590;2024-03-22T10:01:14;17.00;99.90
8541;DHT22;4308;51.294;6.590;2024-03-22T10:03:42;17.00;99.90
8541;DHT22;4308;51.294;6.590;2024-03-22T10:06:08;17.00;99.90
8541;DHT22;4308;51.294;6.590;2024-03-22T10:08:35;17.00;99.90
8541;DHT22;4308;51.294;6.590;2024-03-22T10:11:02;17.10;99.90
8541;DHT22;4308;51.294;6.590;2024-03-22T10:13:28;17.10;99.90
8541;DHT22;4308;51.294;6.590;2024-03-22T10:15:56;17.10;99.90
8541;DHT22;4308;51.294;6.590;2024-03-22T10:18:23;17.10;99.90
8541;DHT22;4308;51.294;6.590;2024-03-22T10:21:02;17.00;99.90
8541;DHT22;4308;51.294;6.590;2024-03-22T10:23:32;17.10;99.90
8541;DHT22;4308;51.294;6.590;2024-03-22T10:26:01;17.00;99.90
8541;DHT22;4308;51.294;6.590;2024-03-22T10:28:27;17.00;99.90
8541;DHT22;4308;51.294;6.590;2024-03-22T10:30:54;17.10;99.90
8541;DHT22;4308;51.294;6.590;2024-03-22T10:33:21;17.10;99.90
8541;DHT22;4308;51.294;6.590;2024-03-22T10:35:51;17.10;99.90
8541;DHT22;4308;51.294;6.590;2024-03-22T10:38:19;17.20;99.90
8541;DHT22;4308;51.294;6.590;2024-03-22T10:40:46;17.20;99.90
8541;DHT22;4308;51.294;6.590;2024-03-22T10:43:16;17.30;99.90
8541;DHT22;4308;51.294;6.590;2024-03-22T10:45:43;17.40;99.90
8541;DHT22;4308;51.294;6.590;2024-03-22T10:48:12;17.40;99.90
8541;DHT22;4308;51.294;6.590;2024-03-22T10:50:42;17.50;99.90
8541;DHT22;4308;51.294;6.590;2024-03-22T10:53:16;17.70;99.90
8541;DHT22;4308;51.294;6.590;2024-03-22T10:55:46;17.90;99.90
8541;DHT22;4308;51.294;6.590;2024-03-22T10:58:22;17.90;99.90
8541;DHT22;4308;51.294;6.590;2024-03-22T11:00:54;18.00;99.90
8541;DHT22;4308;51.294;6.590;2024-03-22T11:03:21;18.10;99.90
8541;DHT22;4308;51.294;6.590;2024-03-22T11:05:49;18.00;99.90
8541;DHT22;4308;51.294;6.590;2024-03-22T11:08:29;18.20;99.90
8541;DHT22;4308;51.294;6.590;2024-03-22T11:11:10;18.10;99.90
8541;DHT22;4308;51.294;6.590;2024-03-22T11:13:38;18.20;99.90
8541;DHT22;4308;51.294;6.590;2024-03-22T11:16:05;18.20;99.90
8541;DHT22;4308;51.294;6.590;2024-03-22T11:18:31;18.40;99.90
8541;DHT22;4308;51.294;6.590;2024-03-22T11:20:59;18.50;99.90
8541;DHT22;4308;51.294;6.590;2024-03-22T11:23:26;18.50;99.90
8541;DHT22;4308;51.294;6.590;2024-03-22T11:25:52;18.40;99.90
8541;DHT22;4308;51.294;6.590;2024-03-22T11:28:18;18.20;99.90
8541;DHT22;4308;51.294;6.590;2024-03-22T11:30:45;18.10;99.90
8541;DHT22;4308;51.294;6.590;2024-03-22T11:33:11;17.70;99.90
8541;DHT22;4308;51.294;6.590;2024-03-22T11:35:38;17.70;99.90
8541;DHT22;4308;51.294;6.590;2024-03-22T11:38:04;17.60;99.90
8541;DHT22;4308;51.294;6.590;2024-03-22T11:40:31;17.40;99.90
8541;DHT22;4308;51.294;6.590;2024-03-22T11:42:58;17.30;99.90
8541;DHT22;4308;51.294;6.590;2024-03-22T11:45:26;17.10;99.90
8541;DHT22;4308;51.294;6.590;2024-03-22T11:47:53;17.10;99.90
8541;DHT22;4308;51.294;6.590;2024-03-22T11:50:20;16.90;99.90
8541;DHT22;4308;51.294;6.590;2024-03-22T11:52:46;16.90;99.90
8541;DHT22;4308;51.294;6.590;2024-03-22T11:55:14;16.90;99.90
8541;DHT22;4308;51.294;6.590;2024-03-22T11:57:41;16.80;99.90
8541;DHT22;4308;51.294;6.590;2024-03-22T12:00:08;16.80;99.90
8541;DHT22;4308;51.294;6.590;2024-03-22T12:02:37;16.70;99.90
8541;DHT22;4308;51.294;6.590;2024-03-22T12:05:05;16.70;99.90
8541;DHT22;4308;51.294;6.590;2024-03-22T12:07:31;16.50;99.90
8541;DHT22;4308;51.294;6.590;2024-03-22T12:09:58;16.50;99.90
8541;DHT22;4308;51.294;6.590;2024-03-22T12:12:24;16.40;99.90
8541;DHT22;4308;51.294;6.590;2024-03-22T12:14:51;16.10;99.90
8541;DHT22;4308;51.294;6.590;2024-03-22T12:17:18;16.10;99.90
8541;DHT22;4308;51.294;6.590;2024-03-22T12:19:44;16.10;99.90
8541;DHT22;4308;51.294;6.590;2024-03-22T12:22:10;16.10;99.90
8541;DHT22;4308;51.294;6.590;2024-03-22T12:24:37;16.00;99.90
8541;DHT22;4308;51.294;6.590;2024-03-22T12:27:03;15.90;99.90
8541;DHT22;4308;51.294;6.590;2024-03-22T12:29:33;15.80;99.90
8541;DHT22;4308;51.294;6.590;2024-03-22T12:32:01;15.80;99.90
8541;DHT22;4308;51.294;6.590;2024-03-22T12:34:28;15.70;99.90
8541;DHT22;4308;51.294;6.590;2024-03-22T12:36:54;15.70;99.90
8541;DHT22;4308;51.294;6.590;2024-03-22T12:39:21;15.70;99.90
8541;DHT22;4308;51.294;6.590;2024-03-22T12:41:47;15.60;99.90
8541;DHT22;4308;51.294;6.590;2024-03-22T12:44:14;15.50;99.90
8541;DHT22;4308;51.294;6.590;2024-03-22T12:46:40;15.70;99.90
8541;DHT22;4308;51.294;6.590;2024-03-22T12:49:07;15.70;99.90
8541;DHT22;4308;51.294;6.590;2024-03-22T12:51:34;15.80;99.90
8541;DHT22;4308;51.294;6.590;2024-03-22T12:54:01;15.90;99.90
8541;DHT22;4308;51.294;6.590;2024-03-22T12:56:27;16.00;99.90
8541;DHT22;4308;51.294;6.590;2024-03-22T12:58:54;15.90;99.90
8541;DHT22;4308;51.294;6.590;2024-03-22T13:01:20;15.80;99.90
8541;DHT22;4308;51.294;6.590;2024-03-22T13:03:47;15.70;99.90
8541;DHT22;4308;51.294;6.590;2024-03-22T13:06:13;15.60;99.90
8541;DHT22;4308;51.294;6.590;2024-03-22T13:08:40;15.50;99.90
8541;DHT22;4308;51.294;6.590;2024-03-22T13:11:06;15.40;99.90
8541;DHT22;4308;51.294;6.590;2024-03-22T13:13:32;15.30;99.90
8541;DHT22;4308;51.294;6.590;2024-03-22T13:15:59;15.30;99.90
8541;DHT22;4308;51.294;6.590;2024-03-22T13:18:25;15.20;99.90
8541;DHT22;4308;51.294;6.590;2024-03-22T13:20:52;15.10;99.90
8541;DHT22;4308;51.294;6.590;2024-03-22T13:23:18;15.00;99.90
8541;DHT22;4308;51.294;6.590;2024-03-22T13:25:44;15.00;99.90
8541;DHT22;4308;51.294;6.590;2024-03-22T13:28:11;14.80;99.90
8541;DHT22;4308;51.294;6.590;2024-03-22T13:30:37;14.70;99.90
8541;DHT22;4308;51.294;6.590;2024-03-22T13:33:04;14.80;99.90
8541;DHT22;4308;51.294;6.590;2024-03-22T13:35:30;14.70;99.90
8541;DHT22;4308;51.294;6.590;2024-03-22T13:37:56;14.60;99.90
8541;DHT22;4308;51.294;6.590;2024-03-22T13:40:23;14.50;99.90
8541;DHT22;4308;51.294;6.590;2024-03-22T13:42:53;14.50;99.90
8541;DHT22;4308;51.294;6.590;2024-03-22T13:45:19;14.40;99.90
8541;DHT22;4308;51.294;6.590;2024-03-22T13:47:46;14.40;99.90
8541;DHT22;4308;51.294;6.590;2024-03-22T13:50:12;14.40;99.90
8541;DHT22;4308;51.294;6.590;2024-03-22T13:52:39;14.40;99.90
8541;DHT22;4308;51.294;6.590;2024-03-22T13:55:05;14.40;99.90
8541;DHT22;4308;51.294;6.590;2024-03-22T13:57:32;14.50;99.90
8541;DHT22;4308;51.294;6.590;2024-03-22T13:59:59;14.50;99.90
8541;DHT22;4308;51.294;6.590;2024-03-22T14:02:25;14.40;99.90
8541;DHT22;4308;51.294;6.590;2024-03-22T14:04:51;14.50;99.90
8541;DHT22;4308;51.294;6.590;2024-03-22T14:07:18;14.40;99.90
8541;DHT22;4308;51.294;6.590;2024-03-22T14:09:44;14.40;99.90
8541;DHT22;4308;51.294;6.590;2024-03-22T14:12:11;14.30;99.90
8541;DHT22;4308;51.294;6.590;2024-03-22T14:14:37;14.00;99.90
8541;DHT22;4308;51.294;6.590;2024-03-22T14:17:03;14.00;99.90
8541;DHT22;4308;51.294;6.590;2024-03-22T14:19:30;13.80;99.90
8541;DHT22;4308;51.294;6.590;2024-03-22T14:21:56;13.70;99.90
8541;DHT22;4308;51.294;6.590;2024-03-22T14:24:22;13.70;99.90
8541;DHT22;4308;51.294;6.590;2024-03-22T14:26:48;13.70;99.90
8541;DHT22;4308;51.294;6.590;2024-03-22T14:29:15;13.80;99.90
8541;DHT22;4308;51.294;6.590;2024-03-22T14:31:42;13.80;99.90
8541;DHT22;4308;51.294;6.590;2024-03-22T14:34:08;13.70;99.90
8541;DHT22;4308;51.294;6.590;2024-03-22T14:36:35;13.70;99.90
8541;DHT22;4308;51.294;6.590;2024-03-22T14:39:01;13.70;99.90
8541;DHT22;4308;51.294;6.590;2024-03-22T14:41:27;13.70;99.90
8541;DHT22;4308;51.294;6.590;2024-03-22T14:43:54;13.60;99.90
8541;DHT22;4308;51.294;6.590;2024-03-22T14:46:20;13.60;99.90
8541;DHT22;4308;51.294;6.590;2024-03-22T14:48:46;13.60;99.90
8541;DHT22;4308;51.294;6.590;2024-03-22T14:51:13;13.50;99.90
8541;DHT22;4308;51.294;6.590;2024-03-22T14:53:39;13.50;99.90
8541;DHT22;4308;51.294;6.590;2024-03-22T14:56:06;13.40;99.90
8541;DHT22;4308;51.294;6.590;2024-03-22T14:58:32;13.40;99.90
8541;DHT22;4308;51.294;6.590;2024-03-22T15:01:02;13.40;99.90
8541;DHT22;4308;51.294;6.590;2024-03-22T15:03:29;13.40;99.90
8541;DHT22;4308;51.294;6.590;2024-03-22T15:05:56;13.40;99.90
8541;DHT22;4308;51.294;6.590;2024-03-22T15:08:23;13.40;99.90
8541;DHT22;4308;51.294;6.590;2024-03-22T15:10:49;13.40;99.90
8541;DHT22;4308;51.294;6.590;2024-03-22T15:13:17;13.40;99.90
8541;DHT22;4308;51.294;6.590;2024-03-22T15:15:52;13.30;99.90
8541;DHT22;4308;51.294;6.590;2024-03-22T15:18:19;13.20;99.90
8541;DHT22;4308;51.294;6.590;2024-03-22T15:20:45;13.20;99.90
8541;DHT22;4308;51.294;6.590;2024-03-22T15:23:13;13.20;99.90
8541;DHT22;4308;51.294;6.590;2024-03-22T15:25:39;13.10;99.90
8541;DHT22;4308;51.294;6.590;2024-03-22T15:28:06;13.00;99.90
8541;DHT22;4308;51.294;6.590;2024-03-22T15:30:32;13.00;99.90
8541;DHT22;4308;51.294;6.590;2024-03-22T15:32:59;13.00;99.90
8541;DHT22;4308;51.294;6.590;2024-03-22T15:35:25;12.90;99.90
8541;DHT22;4308;51.294;6.590;2024-03-22T15:37:52;12.90;99.90
8541;DHT22;4308;51.294;6.590;2024-03-22T15:40:18;12.90;99.90
8541;DHT22;4308;51.294;6.590;2024-03-22T15:42:45;12.80;99.90
8541;DHT22;4308;51.294;6.590;2024-03-22T15:45:12;12.80;99.90
8541;DHT22;4308;51.294;6.590;2024-03-22T15:47:38;12.80;99.90
8541;DHT22;4308;51.294;6.590;2024-03-22T15:50:05;12.80;99.90
8541;DHT22;4308;51.294;6.590;2024-03-22T15:52:32;12.80;99.90
8541;DHT22;4308;51.294;6.590;2024-03-22T15:54:59;12.80;99.90
8541;DHT22;4308;51.294;6.590;2024-03-22T15:57:26;12.80;99.90
8541;DHT22;4308;51.294;6.590;2024-03-22T15:59:53;12.80;99.90
8541;DHT22;4308;51.294;6.590;2024-03-22T16:02:19;12.80;99.90
8541;DHT22;4308;51.294;6.590;2024-03-22T16:04:46;12.80;99.90
8541;DHT22;4308;51.294;6.590;2024-03-22T16:07:12;12.80;99.90
8541;DHT22;4308;51.294;6.590;2024-03-22T16:09:39;12.80;99.90
8541;DHT22;4308;51.294;6.590;2024-03-22T16:12:05;12.80;99.90